Time;durP1;ratioP1;P1;durP2;ratioP2;P2;SDS_P1;SDS_P2;PMS_P1;PMS_P2;Temp;Humidity;BMP_temperature;BMP_pressure;BME280_temperature;BME280_humidity;BME280_pressure;Samples;Min_cycle;Max_cycle;Signal;HPM_P1;HPM_P2
2023/09/11 00:02:04;;;;;;;23.90;16.00;;;;;;;-128.00;-1.00;-1.00;100661;319;1002864;-36
2023/09/11 00:04:30;;;;;;;17.00;11.80;;;;;;;-128.00;-1.00;-1.00;100729;319;1003408;-40
2023/09/11 00:06:55;;;;;;;14.10;11.10;;;;;;;-128.00;-1.00;-1.00;100749;318;1003367;-34
2023/09/11 00:09:21;;;;;;;23.40;16.70;;;;;;;-128.00;-1.00;-1.00;100596;319;1003173;-36
2023/09/11 00:11:47;;;;;;;15.20;12.40;;;;;;;-128.00;-1.00;-1.00;100579;319;1004622;-36
2023/09/11 00:14:12;;;;;;;10.20;8.90;;;;;;;-128.00;-1.00;-1.00;100553;319;1003391;-36
2023/09/11 00:16:39;;;;;;;25.70;13.70;;;;;;;-128.00;-1.00;-1.00;100779;319;1004249;-34
2023/09/11 00:19:06;;;;;;;15.60;10.70;;;;;;;-128.00;-1.00;-1.00;100650;319;1003772;-36
2023/09/11 00:21:31;;;;;;;16.30;11.10;;;;;;;-128.00;-1.00;-1.00;100634;319;1002976;-36
2023/09/11 00:23:57;;;;;;;15.40;12.30;;;;;;;-128.00;-1.00;-1.00;100674;319;1003930;-29
2023/09/11 00:26:22;;;;;;;20.30;12.80;;;;;;;-128.00;-1.00;-1.00;100739;319;1003474;-30
2023/09/11 00:28:48;;;;;;;17.80;11.00;;;;;;;-128.00;-1.00;-1.00;100644;319;1003539;-30
2023/09/11 00:31:14;;;;;;;8.40;7.30;;;;;;;-128.00;-1.00;-1.00;100574;319;1003248;-30
2023/09/11 00:33:39;;;;;;;10.30;8.70;;;;;;;-128.00;-1.00;-1.00;100702;318;1003415;-30
2023/09/11 01:18:33;;;;;;;22.50;18.50;;;;;;;-99.83;19.20;19878.49;40450;318;7504527;-35
2023/09/11 01:21:09;;;;;;;18.00;13.70;;;;;;;-128.00;-1.00;-1.00;18668;319;7506409;-31
2023/09/11 01:23:50;;;;;;;11.50;9.10;;;;;;;-128.00;-1.00;-1.00;19025;317;7504772;-35
2023/09/11 01:26:23;;;;;;;7.30;6.60;;;;;;;-128.00;-1.00;-1.00;19048;317;7504924;-35
2023/09/11 01:29:11;;;;;;;16.10;13.40;;;;;;;-128.00;-1.00;-1.00;19035;317;7504544;-35
2023/09/11 01:31:37;;;;;;;9.00;7.20;;;;;;;-128.00;-1.00;-1.00;19039;318;7504576;-32
2023/09/11 01:34:03;;;;;;;12.50;10.80;;;;;;;-128.00;-1.00;-1.00;19064;318;7505334;-36
2023/09/11 01:36:30;;;;;;;12.70;10.80;;;;;;;-128.00;-1.00;-1.00;19039;317;7504763;-31
2023/09/11 01:38:56;;;;;;;13.20;11.80;;;;;;;-128.00;-1.00;-1.00;19028;318;7505220;-35
2023/09/11 01:41:26;;;;;;;12.10;10.60;;;;;;;-128.00;-1.00;-1.00;19041;317;7504875;-31
2023/09/11 01:43:52;;;;;;;14.10;10.70;;;;;;;-128.00;-1.00;-1.00;19026;323;7506486;-31
2023/09/11 01:46:17;;;;;;;16.70;12.10;;;;;;;-128.00;-1.00;-1.00;19010;322;7506468;-31
2023/09/11 01:48:43;;;;;;;16.50;12.40;;;;;;;-128.00;-1.00;-1.00;19492;317;7505619;-35
2023/09/11 01:51:10;;;;;;;14.40;12.70;;;;;;;-128.00;-1.00;-1.00;19438;317;7505103;-35
2023/09/11 01:53:37;;;;;;;16.70;13.00;;;;;;;-128.00;-1.00;-1.00;19019;322;7505723;-31
2023/09/11 01:56:03;;;;;;;22.20;15.10;;;;;;;-128.00;-1.00;-1.00;19454;321;7505017;-35
2023/09/11 01:58:29;;;;;;;16.90;12.80;;;;;;;-128.00;-1.00;-1.00;19050;322;7506100;-30
2023/09/11 02:00:55;;;;;;;19.00;13.40;;;;;;;-128.00;-1.00;-1.00;19467;318;7505530;-35
2023/09/11 02:03:21;;;;;;;18.50;13.40;;;;;;;-128.00;-1.00;-1.00;19440;319;7504522;-32
2023/09/11 02:05:48;;;;;;;17.00;13.00;;;;;;;-128.00;-1.00;-1.00;19447;322;7504716;-30
2023/09/11 02:08:14;;;;;;;9.50;7.30;;;;;;;-128.00;-1.00;-1.00;19494;318;7505637;-30
2023/09/11 02:10:40;;;;;;;11.30;9.30;;;;;;;-128.00;-1.00;-1.00;19451;318;7504888;-30
2023/09/11 02:13:06;;;;;;;11.30;9.80;;;;;;;-128.00;-1.00;-1.00;19442;323;7504840;-34
2023/09/11 02:15:32;;;;;;;13.00;11.10;;;;;;;-128.00;-1.00;-1.00;19459;322;7505353;-30
2023/09/11 02:17:58;;;;;;;10.20;9.00;;;;;;;-128.00;-1.00;-1.00;19450;318;7504725;-34
2023/09/11 02:20:24;;;;;;;8.90;7.90;;;;;;;-128.00;-1.00;-1.00;19442;318;7504740;-30
2023/09/11 02:22:50;;;;;;;15.20;9.80;;;;;;;-128.00;-1.00;-1.00;19426;317;7504840;-34
2023/09/11 02:25:16;;;;;;;14.30;9.40;;;;;;;-128.00;-1.00;-1.00;19439;318;7504480;-34
2023/09/11 02:27:43;;;;;;;13.60;10.60;;;;;;;-128.00;-1.00;-1.00;19419;323;7505306;-30
2023/09/11 02:30:09;;;;;;;10.10;8.20;;;;;;;-128.00;-1.00;-1.00;19464;323;7504990;-34
2023/09/11 02:32:35;;;;;;;9.30;7.80;;;;;;;-128.00;-1.00;-1.00;19483;318;7504961;-34
2023/09/11 02:35:02;;;;;;;8.00;7.10;;;;;;;-128.00;-1.00;-1.00;19443;317;7505180;-31
2023/09/11 02:37:28;;;;;;;13.70;10.20;;;;;;;-128.00;-1.00;-1.00;19436;317;7504827;-35
2023/09/11 02:39:54;;;;;;;11.50;9.70;;;;;;;-128.00;-1.00;-1.00;19483;317;7504607;-31
2023/09/11 02:42:20;;;;;;;18.00;11.90;;;;;;;-128.00;-1.00;-1.00;19400;319;7505019;-31
2023/09/11 02:44:47;;;;;;;14.90;12.00;;;;;;;-128.00;-1.00;-1.00;19447;317;7504843;-31
2023/09/11 02:47:13;;;;;;;16.10;12.60;;;;;;;-128.00;-1.00;-1.00;19455;317;7504976;-35
2023/09/11 02:49:39;;;;;;;14.40;12.10;;;;;;;-128.00;-1.00;-1.00;19443;321;7504890;-31
2023/09/11 02:52:05;;;;;;;17.90;12.30;;;;;;;-128.00;-1.00;-1.00;19461;317;7505715;-30
2023/09/11 02:54:32;;;;;;;15.90;11.90;;;;;;;-128.00;-1.00;-1.00;19008;317;7506169;-34
2023/09/11 02:56:58;;;;;;;14.30;11.10;;;;;;;-128.00;-1.00;-1.00;19461;318;7504879;-31
2023/09/11 02:59:24;;;;;;;13.30;11.20;;;;;;;-128.00;-1.00;-1.00;19443;322;7504440;-34
2023/09/11 03:01:50;;;;;;;10.60;9.60;;;;;;;-128.00;-1.00;-1.00;19426;323;7504852;-35
2023/09/11 03:04:17;;;;;;;10.10;8.70;;;;;;;-128.00;-1.00;-1.00;19434;322;7505134;-31
2023/09/11 03:06:43;;;;;;;12.10;10.90;;;;;;;-128.00;-1.00;-1.00;19453;318;7505031;-35
2023/09/11 03:09:09;;;;;;;11.80;10.20;;;;;;;-128.00;-1.00;-1.00;19474;317;7505893;-35
2023/09/11 03:11:35;;;;;;;11.60;10.30;;;;;;;-128.00;-1.00;-1.00;19432;317;7504975;-31
2023/09/11 03:14:02;;;;;;;9.90;8.90;;;;;;;-128.00;-1.00;-1.00;19453;317;7504618;-34
2023/09/11 03:16:27;;;;;;;9.60;8.30;;;;;;;-128.00;-1.00;-1.00;19044;317;7505061;-31
2023/09/11 03:18:54;;;;;;;11.10;9.70;;;;;;;-128.00;-1.00;-1.00;19021;317;7506634;-31
2023/09/11 03:21:19;;;;;;;7.90;6.40;;;;;;;-128.00;-1.00;-1.00;19063;317;7504819;-31
2023/09/11 03:23:45;;;;;;;8.70;7.10;;;;;;;-128.00;-1.00;-1.00;19030;317;7505778;-36
2023/09/11 03:26:15;;;;;;;8.30;7.00;;;;;;;-128.00;-1.00;-1.00;19445;318;7505159;-30
2023/09/11 03:28:44;;;;;;;12.90;6.80;;;;;;;-128.00;-1.00;-1.00;19067;317;7504856;-35
2023/09/11 03:31:10;;;;;;;7.60;6.80;;;;;;;-128.00;-1.00;-1.00;19007;317;7504993;-34
2023/09/11 03:33:36;;;;;;;10.70;9.40;;;;;;;-128.00;-1.00;-1.00;19428;318;7505548;-34
2023/09/11 03:36:03;;;;;;;8.50;7.20;;;;;;;-128.00;-1.00;-1.00;19419;318;7504889;-36
2023/09/11 03:38:29;;;;;;;7.10;6.00;;;;;;;-128.00;-1.00;-1.00;18990;317;7505163;-35
2023/09/11 03:40:56;;;;;;;11.70;10.10;;;;;;;-128.00;-1.00;-1.00;19435;318;7505323;-31
2023/09/11 03:43:21;;;;;;;10.30;9.20;;;;;;;-128.00;-1.00;-1.00;19047;317;7506419;-32
2023/09/11 03:45:47;;;;;;;11.30;9.40;;;;;;;-128.00;-1.00;-1.00;19016;317;7504870;-35
2023/09/11 03:48:13;;;;;;;12.60;10.40;;;;;;;-128.00;-1.00;-1.00;19039;318;7505592;-35
2023/09/11 03:50:38;;;;;;;12.60;10.80;;;;;;;-128.00;-1.00;-1.00;18997;323;7505250;-31
2023/09/11 03:53:04;;;;;;;14.60;11.50;;;;;;;-128.00;-1.00;-1.00;19417;318;7504664;-35
2023/09/11 03:55:30;;;;;;;18.20;12.00;;;;;;;-128.00;-1.00;-1.00;19021;317;7504992;-33
2023/09/11 03:57:56;;;;;;;12.60;10.70;;;;;;;-128.00;-1.00;-1.00;19036;322;7505143;-35
2023/09/11 04:00:21;;;;;;;23.50;11.30;;;;;;;-128.00;-1.00;-1.00;19038;317;7505111;-35
2023/09/11 04:02:48;;;;;;;13.20;11.30;;;;;;;-128.00;-1.00;-1.00;19440;323;7504373;-35
2023/09/11 04:05:14;;;;;;;13.20;10.80;;;;;;;-128.00;-1.00;-1.00;19430;317;7504339;-33
2023/09/11 04:07:40;;;;;;;17.10;10.80;;;;;;;-128.00;-1.00;-1.00;19457;317;7506558;-35
2023/09/11 04:10:07;;;;;;;12.70;7.30;;;;;;;-128.00;-1.00;-1.00;19431;319;7505301;-35
2023/09/11 04:12:32;;;;;;;8.40;7.60;;;;;;;-128.00;-1.00;-1.00;19018;323;7504433;-35
2023/09/11 04:14:58;;;;;;;12.70;11.00;;;;;;;-128.00;-1.00;-1.00;19435;317;7504563;-31
2023/09/11 04:17:25;;;;;;;15.10;10.70;;;;;;;-128.00;-1.00;-1.00;19412;318;7505423;-35
2023/09/11 04:19:51;;;;;;;14.80;9.90;;;;;;;-128.00;-1.00;-1.00;19035;323;7504734;-35
2023/09/11 04:22:17;;;;;;;13.20;8.00;;;;;;;-128.00;-1.00;-1.00;19420;323;7505587;-35
2023/09/11 04:24:44;;;;;;;18.20;11.40;;;;;;;-128.00;-1.00;-1.00;19456;323;7504775;-31
2023/09/11 04:27:10;;;;;;;13.90;10.30;;;;;;;-128.00;-1.00;-1.00;19014;317;7505025;-32
2023/09/11 04:29:36;;;;;;;18.60;11.10;;;;;;;-128.00;-1.00;-1.00;19429;322;7505050;-35
2023/09/11 04:32:02;;;;;;;21.80;13.40;;;;;;;-128.00;-1.00;-1.00;19447;322;7505040;-32
2023/09/11 04:34:28;;;;;;;14.40;12.60;;;;;;;-128.00;-1.00;-1.00;19426;317;7504653;-34
2023/09/11 04:36:55;;;;;;;15.30;12.90;;;;;;;-128.00;-1.00;-1.00;19438;323;7504674;-31
2023/09/11 04:39:22;;;;;;;22.10;14.80;;;;;;;-128.00;-1.00;-1.00;19456;322;7504486;-35
2023/09/11 04:41:47;;;;;;;24.10;12.60;;;;;;;-128.00;-1.00;-1.00;19025;323;7505181;-35
2023/09/11 04:44:13;;;;;;;16.60;12.20;;;;;;;-128.00;-1.00;-1.00;18996;323;7505089;-31
2023/09/11 04:46:39;;;;;;;15.80;12.10;;;;;;;-128.00;-1.00;-1.00;19017;317;7504818;-31
2023/09/11 04:49:04;;;;;;;12.80;11.50;;;;;;;-128.00;-1.00;-1.00;19025;317;7504797;-31
2023/09/11 04:51:31;;;;;;;12.60;9.90;;;;;;;-128.00;-1.00;-1.00;19012;318;7506803;-31
2023/09/11 04:53:56;;;;;;;13.50;11.90;;;;;;;-128.00;-1.00;-1.00;19017;323;7504576;-31
2023/09/11 04:56:24;;;;;;;19.60;13.30;;;;;;;-128.00;-1.00;-1.00;19007;318;7506660;-31
2023/09/11 04:58:50;;;;;;;20.00;13.80;;;;;;;-128.00;-1.00;-1.00;19461;317;7504569;-33
2023/09/11 05:01:16;;;;;;;18.80;13.80;;;;;;;-128.00;-1.00;-1.00;19446;317;7504639;-34
2023/09/11 05:03:42;;;;;;;20.50;12.50;;;;;;;-128.00;-1.00;-1.00;19492;317;7506544;-34
2023/09/11 05:06:08;;;;;;;17.90;13.80;;;;;;;-128.00;-1.00;-1.00;19424;317;7504711;-34
2023/09/11 05:08:35;;;;;;;20.30;13.60;;;;;;;-128.00;-1.00;-1.00;19434;317;7505028;-31
2023/09/11 05:11:01;;;;;;;16.60;13.10;;;;;;;-128.00;-1.00;-1.00;19454;323;7506627;-35
2023/09/11 05:13:27;;;;;;;21.30;13.40;;;;;;;-128.00;-1.00;-1.00;18996;319;7504672;-34
2023/09/11 05:15:53;;;;;;;15.10;11.10;;;;;;;-128.00;-1.00;-1.00;19011;318;7505778;-31
2023/09/11 05:18:18;;;;;;;11.50;9.60;;;;;;;-128.00;-1.00;-1.00;19013;321;7504913;-31
2023/09/11 05:20:46;;;;;;;13.60;11.40;;;;;;;-128.00;-1.00;-1.00;19445;323;7505275;-31
2023/09/11 05:23:11;;;;;;;10.90;9.00;;;;;;;-128.00;-1.00;-1.00;19015;319;7504781;-32
2023/09/11 05:25:37;;;;;;;17.70;12.10;;;;;;;-128.00;-1.00;-1.00;19426;317;7504716;-35
2023/09/11 05:28:05;;;;;;;14.00;10.50;;;;;;;-128.00;-1.00;-1.00;19419;317;7505641;-35
2023/09/11 05:30:31;;;;;;;12.80;10.00;;;;;;;-128.00;-1.00;-1.00;19011;318;7504681;-31
2023/09/11 05:32:57;;;;;;;12.40;10.00;;;;;;;-128.00;-1.00;-1.00;19013;317;7506310;-32
2023/09/11 05:35:23;;;;;;;17.90;11.70;;;;;;;-128.00;-1.00;-1.00;19442;321;7505239;-32
2023/09/11 05:37:49;;;;;;;16.00;11.00;;;;;;;-128.00;-1.00;-1.00;19451;318;7504460;-32
2023/09/11 05:40:15;;;;;;;22.50;11.60;;;;;;;-128.00;-1.00;-1.00;19428;317;7504444;-32
2023/09/11 05:42:41;;;;;;;14.40;11.70;;;;;;;-128.00;-1.00;-1.00;19443;317;7504785;-36
2023/09/11 05:45:08;;;;;;;21.20;11.20;;;;;;;-128.00;-1.00;-1.00;19438;317;7504451;-35
2023/09/11 05:47:34;;;;;;;23.20;10.60;;;;;;;-128.00;-1.00;-1.00;19029;317;7507311;-36
2023/09/11 05:50:00;;;;;;;12.90;9.10;;;;;;;-128.00;-1.00;-1.00;19042;317;7505226;-37
2023/09/11 05:52:27;;;;;;;12.90;10.40;;;;;;;-128.00;-1.00;-1.00;19012;317;7505109;-35
2023/09/11 05:54:52;;;;;;;12.10;9.80;;;;;;;-128.00;-1.00;-1.00;19054;322;7506233;-32
2023/09/11 05:57:19;;;;;;;10.90;8.70;;;;;;;-128.00;-1.00;-1.00;19012;317;7504526;-31
2023/09/11 05:59:45;;;;;;;11.80;9.70;;;;;;;-128.00;-1.00;-1.00;19012;323;7505108;-35
2023/09/11 06:02:11;;;;;;;11.80;10.30;;;;;;;-128.00;-1.00;-1.00;19014;317;7505760;-35
2023/09/11 06:04:37;;;;;;;20.60;12.20;;;;;;;-128.00;-1.00;-1.00;19052;317;7505105;-31
2023/09/11 06:07:03;;;;;;;20.30;12.20;;;;;;;-128.00;-1.00;-1.00;18992;323;7504445;-35
2023/09/11 06:09:29;;;;;;;15.70;9.40;;;;;;;-128.00;-1.00;-1.00;19027;317;7505512;-35
2023/09/11 06:11:55;;;;;;;18.10;12.80;;;;;;;-128.00;-1.00;-1.00;19007;317;7504666;-35
2023/09/11 06:14:21;;;;;;;19.10;9.40;;;;;;;-128.00;-1.00;-1.00;19048;322;7504765;-31
2023/09/11 06:16:46;;;;;;;13.80;9.20;;;;;;;-128.00;-1.00;-1.00;19032;317;7506454;-34
2023/09/11 06:19:12;;;;;;;35.90;11.90;;;;;;;-128.00;-1.00;-1.00;19040;317;7504460;-34
2023/09/11 06:21:38;;;;;;;8.80;7.90;;;;;;;-128.00;-1.00;-1.00;19036;317;7504534;-37
2023/09/11 06:24:05;;;;;;;12.60;10.10;;;;;;;-128.00;-1.00;-1.00;19035;317;7504642;-31
2023/09/11 06:26:30;;;;;;;11.90;8.20;;;;;;;-128.00;-1.00;-1.00;19016;318;7505275;-36
2023/09/11 06:28:56;;;;;;;11.00;9.10;;;;;;;-128.00;-1.00;-1.00;19019;318;7506729;-32
2023/09/11 06:31:22;;;;;;;11.80;8.10;;;;;;;-128.00;-1.00;-1.00;19024;323;7504393;-35
2023/09/11 06:33:48;;;;;;;12.30;7.70;;;;;;;-128.00;-1.00;-1.00;19009;317;7504794;-35
2023/09/11 06:36:14;;;;;;;10.80;8.40;;;;;;;-128.00;-1.00;-1.00;19009;322;7505002;-32
2023/09/11 06:38:40;;;;;;;8.80;8.00;;;;;;;-128.00;-1.00;-1.00;19042;317;7504903;-33
2023/09/11 06:41:06;;;;;;;9.90;8.30;;;;;;;-128.00;-1.00;-1.00;19042;317;7504543;-36
2023/09/11 06:43:32;;;;;;;19.00;11.70;;;;;;;-128.00;-1.00;-1.00;19434;317;7505482;-35
2023/09/11 06:45:58;;;;;;;14.40;9.00;;;;;;;-128.00;-1.00;-1.00;19447;317;7505241;-35
2023/09/11 06:48:24;;;;;;;12.50;8.80;;;;;;;-128.00;-1.00;-1.00;19441;320;7505352;-33
2023/09/11 06:50:52;;;;;;;20.90;8.80;;;;;;;-128.00;-1.00;-1.00;19483;317;7505322;-32
2023/09/11 06:53:17;;;;;;;9.30;6.30;;;;;;;-128.00;-1.00;-1.00;19037;323;7504929;-36
2023/09/11 06:55:44;;;;;;;12.50;8.50;;;;;;;-128.00;-1.00;-1.00;19441;317;7506121;-33
2023/09/11 06:58:12;;;;;;;8.20;7.00;;;;;;;-128.00;-1.00;-1.00;19024;317;7505393;-36
2023/09/11 07:00:38;;;;;;;7.00;6.30;;;;;;;-128.00;-1.00;-1.00;19021;323;7505287;-32
2023/09/11 07:03:04;;;;;;;6.30;5.70;;;;;;;-128.00;-1.00;-1.00;19007;317;7504566;-35
2023/09/11 07:05:30;;;;;;;8.00;6.40;;;;;;;-128.00;-1.00;-1.00;19006;322;7506560;-35
2023/09/11 07:07:56;;;;;;;8.80;7.80;;;;;;;-128.00;-1.00;-1.00;19000;317;7506566;-31
2023/09/11 07:10:21;;;;;;;6.50;5.00;;;;;;;-128.00;-1.00;-1.00;19015;321;7505102;-32
2023/09/11 07:12:47;;;;;;;7.60;5.90;;;;;;;-128.00;-1.00;-1.00;19038;317;7506716;-35
2023/09/11 07:15:13;;;;;;;11.10;6.90;;;;;;;-128.00;-1.00;-1.00;19029;317;7504902;-36
2023/09/11 07:17:39;;;;;;;7.20;6.50;;;;;;;-128.00;-1.00;-1.00;19027;323;7504781;-35
2023/09/11 07:20:06;;;;;;;8.50;5.20;;;;;;;-128.00;-1.00;-1.00;19036;318;7505056;-32
2023/09/11 07:22:32;;;;;;;8.80;7.70;;;;;;;-128.00;-1.00;-1.00;19034;317;7505193;-32
2023/09/11 07:24:58;;;;;;;10.30;7.60;;;;;;;-128.00;-1.00;-1.00;19035;323;7504741;-32
2023/09/11 07:27:26;;;;;;;12.70;8.00;;;;;;;-128.00;-1.00;-1.00;19028;317;7506422;-35
2023/09/11 07:29:52;;;;;;;10.10;7.60;;;;;;;-128.00;-1.00;-1.00;19020;317;7505307;-35
2023/09/11 07:32:18;;;;;;;14.20;8.00;;;;;;;-128.00;-1.00;-1.00;19043;322;7506272;-36
2023/09/11 07:34:44;;;;;;;15.90;7.30;;;;;;;-128.00;-1.00;-1.00;19028;317;7504737;-32
2023/09/11 07:37:10;;;;;;;11.00;7.80;;;;;;;-128.00;-1.00;-1.00;19446;317;7505442;-32
2023/09/11 07:39:36;;;;;;;9.70;7.10;;;;;;;-128.00;-1.00;-1.00;19445;317;7506676;-32
2023/09/11 07:42:02;;;;;;;12.50;8.80;;;;;;;-128.00;-1.00;-1.00;19464;318;7505424;-36
2023/09/11 07:44:28;;;;;;;11.50;7.90;;;;;;;-128.00;-1.00;-1.00;19410;318;7505415;-32
2023/09/11 07:46:54;;;;;;;10.90;8.60;;;;;;;-128.00;-1.00;-1.00;19413;319;7504597;-32
2023/09/11 07:49:21;;;;;;;16.00;6.90;;;;;;;-128.00;-1.00;-1.00;19427;323;7505953;-32
2023/09/11 07:51:47;;;;;;;9.90;7.00;;;;;;;-128.00;-1.00;-1.00;19414;323;7504695;-36
2023/09/11 07:54:13;;;;;;;8.20;6.60;;;;;;;-128.00;-1.00;-1.00;19439;317;7505245;-32
2023/09/11 07:56:39;;;;;;;7.30;5.60;;;;;;;-128.00;-1.00;-1.00;19486;317;7504355;-36
2023/09/11 07:59:06;;;;;;;6.20;5.70;;;;;;;-128.00;-1.00;-1.00;19029;322;7504822;-36
2023/09/11 08:01:32;;;;;;;6.90;6.40;;;;;;;-128.00;-1.00;-1.00;19463;323;7504499;-36
2023/09/11 08:03:58;;;;;;;7.80;7.00;;;;;;;-128.00;-1.00;-1.00;19441;317;7504628;-36
2023/09/11 08:06:25;;;;;;;11.50;6.50;;;;;;;-128.00;-1.00;-1.00;19463;317;7505236;-32
2023/09/11 08:08:51;;;;;;;10.30;7.60;;;;;;;-128.00;-1.00;-1.00;19452;322;7504966;-32
2023/09/11 08:11:19;;;;;;;6.80;5.80;;;;;;;-128.00;-1.00;-1.00;19434;318;7505060;-33
2023/09/11 08:13:50;;;;;;;9.80;6.10;;;;;;;-128.00;-1.00;-1.00;19020;318;7504604;-33
2023/09/11 08:16:16;;;;;;;5.50;5.00;;;;;;;-128.00;-1.00;-1.00;19008;322;7504918;-33
2023/09/11 08:18:42;;;;;;;9.80;7.60;;;;;;;-128.00;-1.00;-1.00;19016;323;7505295;-36
2023/09/11 08:21:09;;;;;;;7.30;6.10;;;;;;;-128.00;-1.00;-1.00;19004;317;7504861;-32
2023/09/11 08:23:35;;;;;;;7.30;6.00;;;;;;;-128.00;-1.00;-1.00;19016;322;7504854;-36
2023/09/11 08:26:01;;;;;;;7.40;6.00;;;;;;;-128.00;-1.00;-1.00;19441;317;7505487;-32
2023/09/11 08:28:28;;;;;;;8.40;4.90;;;;;;;-128.00;-1.00;-1.00;19035;322;7505492;-34
2023/09/11 08:30:54;;;;;;;13.90;6.50;;;;;;;-128.00;-1.00;-1.00;19018;317;7505425;-32
2023/09/11 08:33:24;;;;;;;6.30;5.70;;;;;;;-128.00;-1.00;-1.00;19440;323;7504899;-32
2023/09/11 08:35:49;;;;;;;8.30;5.30;;;;;;;-128.00;-1.00;-1.00;19066;321;7505478;-36
2023/09/11 08:38:16;;;;;;;9.20;6.60;;;;;;;-128.00;-1.00;-1.00;19401;318;7505148;-37
2023/09/11 08:40:42;;;;;;;5.60;5.10;;;;;;;-128.00;-1.00;-1.00;19019;322;7505235;-35
2023/09/11 08:43:07;;;;;;;6.50;5.90;;;;;;;-128.00;-1.00;-1.00;19076;322;7506010;-36
2023/09/11 08:45:33;;;;;;;7.10;4.70;;;;;;;-128.00;-1.00;-1.00;19052;323;7505257;-32
2023/09/11 08:47:59;;;;;;;6.20;5.10;;;;;;;-128.00;-1.00;-1.00;19471;317;7504897;-33
2023/09/11 08:50:29;;;;;;;8.20;5.20;;;;;;;-128.00;-1.00;-1.00;19430;318;7505168;-32
2023/09/11 08:52:55;;;;;;;19.20;5.00;;;;;;;-128.00;-1.00;-1.00;19039;317;7506451;-32
2023/09/11 08:55:21;;;;;;;5.00;4.60;;;;;;;-128.00;-1.00;-1.00;19026;323;7506460;-35
2023/09/11 08:57:47;;;;;;;10.80;4.10;;;;;;;-128.00;-1.00;-1.00;19054;317;7505016;-36
2023/09/11 09:00:13;;;;;;;5.90;5.40;;;;;;;-128.00;-1.00;-1.00;19026;323;7506531;-32
2023/09/11 09:02:39;;;;;;;5.90;5.40;;;;;;;-128.00;-1.00;-1.00;19035;317;7504830;-36
2023/09/11 09:05:06;;;;;;;6.50;5.80;;;;;;;-128.00;-1.00;-1.00;19033;317;7505744;-32
2023/09/11 09:07:32;;;;;;;6.80;6.30;;;;;;;-128.00;-1.00;-1.00;19015;323;7504419;-34
2023/09/11 09:09:57;;;;;;;19.60;5.60;;;;;;;-128.00;-1.00;-1.00;19057;317;7505253;-32
2023/09/11 09:12:24;;;;;;;4.30;3.90;;;;;;;-128.00;-1.00;-1.00;19002;321;7505052;-32
2023/09/11 09:14:50;;;;;;;5.60;5.10;;;;;;;-128.00;-1.00;-1.00;19015;323;7504592;-36
2023/09/11 09:17:17;;;;;;;4.50;4.20;;;;;;;-128.00;-1.00;-1.00;19419;317;7505805;-36
2023/09/11 09:19:43;;;;;;;4.40;3.20;;;;;;;-128.00;-1.00;-1.00;29423;322;7504463;-31
2023/09/11 09:22:09;;;;;;;12.40;3.90;;;;;;;-128.00;-1.00;-1.00;100343;317;1002725;-35
2023/09/11 09:24:51;;;;;;;4.50;4.10;;;;;;;-128.00;-1.00;-1.00;100701;317;1003710;-35
2023/09/11 09:27:17;;;;;;;5.20;3.30;;;;;;;-128.00;-1.00;-1.00;100758;317;1003169;-31
2023/09/11 09:29:42;;;;;;;5.20;3.80;;;;;;;-128.00;-1.00;-1.00;100567;317;1004646;-31
2023/09/11 09:32:08;;;;;;;4.20;3.70;;;;;;;-128.00;-1.00;-1.00;100499;318;1003758;-34
2023/09/11 09:34:35;;;;;;;4.10;3.10;;;;;;;-128.00;-1.00;-1.00;98064;317;2286051;-32
2023/09/11 09:37:01;;;;;;;3.40;2.60;;;;;;;-128.00;-1.00;-1.00;100866;317;1003055;-32
2023/09/11 09:39:28;;;;;;;5.90;3.50;;;;;;;-128.00;-1.00;-1.00;100752;317;1003190;-35
2023/09/11 09:41:58;;;;;;;;;;;;;;;-128.00;-1.00;-1.00;100751;317;1002959;-35
2023/09/11 09:44:43;;;;;;;5.90;3.80;;;;;;;-128.00;-1.00;-1.00;94444;317;3003239;-36
2023/09/11 09:47:10;;;;;;;4.20;3.30;;;;;;;-128.00;-1.00;-1.00;100789;317;1005120;-31
2023/09/11 09:49:49;;;;;;;10.20;4.00;;;;;;;-128.00;-1.00;-1.00;100811;317;1004016;-35
2023/09/11 09:52:20;;;;;;;9.00;3.60;;;;;;;-128.00;-1.00;-1.00;100819;317;1003331;-32
2023/09/11 09:54:49;;;;;;;4.60;2.60;;;;;;;-128.00;-1.00;-1.00;100708;318;1002981;-32
2023/09/11 09:57:16;;;;;;;4.00;3.60;;;;;;;-128.00;-1.00;-1.00;100727;317;1002716;-31
2023/09/11 09:59:49;;;;;;;5.40;3.70;;;;;;;-128.00;-1.00;-1.00;100725;318;1003330;-36
2023/09/11 10:02:21;;;;;;;4.00;3.20;;;;;;;-128.00;-1.00;-1.00;100326;317;1004015;-35
2023/09/11 10:04:50;;;;;;;3.80;3.00;;;;;;;-128.00;-1.00;-1.00;45912;322;7504614;-31
2023/09/11 10:07:16;;;;;;;4.40;2.80;;;;;;;-128.00;-1.00;-1.00;100834;317;1005260;-35
2023/09/11 10:09:41;;;;;;;5.00;4.30;;;;;;;-128.00;-1.00;-1.00;100642;317;1002479;-35
2023/09/11 10:12:09;;;;;;;3.70;3.40;;;;;;;-128.00;-1.00;-1.00;100765;317;1003630;-31
2023/09/11 10:14:34;;;;;;;2.20;2.00;;;;;;;-128.00;-1.00;-1.00;100835;317;1003215;-35
2023/09/11 10:17:00;;;;;;;4.70;4.30;;;;;;;-128.00;-1.00;-1.00;100822;317;1003130;-35
2023/09/11 10:19:28;;;;;;;3.50;3.10;;;;;;;-128.00;-1.00;-1.00;100730;317;1002977;-31
2023/09/11 10:21:54;;;;;;;5.40;3.20;;;;;;;-128.00;-1.00;-1.00;100835;317;1004341;-35
2023/09/11 10:24:19;;;;;;;3.90;2.70;;;;;;;-128.00;-1.00;-1.00;100649;317;1003601;-35
2023/09/11 10:26:52;;;;;;;4.10;2.20;;;;;;;-128.00;-1.00;-1.00;100740;317;1004117;-35
2023/09/11 10:29:41;;;;;;;3.40;2.80;;;;;;;-128.00;-1.00;-1.00;100709;317;1002725;-31
2023/09/11 10:32:17;;;;;;;5.10;3.60;;;;;;;-128.00;-1.00;-1.00;100811;317;1003444;-32
2023/09/11 10:34:43;;;;;;;5.40;2.80;;;;;;;-128.00;-1.00;-1.00;100793;317;1003379;-35
2023/09/11 10:37:09;;;;;;;5.20;2.70;;;;;;;-128.00;-1.00;-1.00;100687;317;1003662;-30
2023/09/11 10:39:36;;;;;;;3.40;2.80;;;;;;;-128.00;-1.00;-1.00;100698;317;1003358;-32
2023/09/11 10:42:02;;;;;;;3.80;3.10;;;;;;;-128.00;-1.00;-1.00;100890;317;1003034;-32
2023/09/11 10:44:29;;;;;;;4.00;3.60;;;;;;;-128.00;-1.00;-1.00;100650;318;1003010;-32
2023/09/11 10:46:54;;;;;;;7.00;3.10;;;;;;;-128.00;-1.00;-1.00;100755;317;1003294;-32
2023/09/11 10:49:22;;;;;;;5.30;2.70;;;;;;;-128.00;-1.00;-1.00;100558;317;1004286;-36
2023/09/11 10:51:49;;;;;;;2.80;2.60;;;;;;;-128.00;-1.00;-1.00;100863;317;1003125;-31
2023/09/11 10:54:16;;;;;;;3.90;2.80;;;;;;;-128.00;-1.00;-1.00;100895;317;1002616;-35
2023/09/11 10:56:42;;;;;;;2.60;2.40;;;;;;;-128.00;-1.00;-1.00;100796;317;1004207;-31
2023/09/11 10:59:08;;;;;;;3.50;3.10;;;;;;;-128.00;-1.00;-1.00;100470;317;1003323;-35
2023/09/11 11:01:36;;;;;;;5.00;4.00;;;;;;;-128.00;-1.00;-1.00;100656;317;1002955;-33
2023/09/11 11:04:05;;;;;;;3.00;2.80;;;;;;;-128.00;-1.00;-1.00;100799;317;1003277;-35
2023/09/11 11:06:31;;;;;;;3.60;3.20;;;;;;;-128.00;-1.00;-1.00;100662;317;1003791;-31
2023/09/11 11:08:57;;;;;;;4.90;2.20;;;;;;;-128.00;-1.00;-1.00;100845;317;1003147;-35
2023/09/11 11:11:29;;;;;;;4.10;3.60;;;;;;;-128.00;-1.00;-1.00;100815;317;1004064;-31
2023/09/11 11:14:10;;;;;;;5.50;2.40;;;;;;;-128.00;-1.00;-1.00;100895;317;1002507;-35
2023/09/11 11:16:37;;;;;;;4.00;3.70;;;;;;;-128.00;-1.00;-1.00;100839;317;1002725;-35
2023/09/11 11:19:04;;;;;;;2.50;2.30;;;;;;;-128.00;-1.00;-1.00;100736;317;1003549;-35
2023/09/11 11:21:42;;;;;;;2.70;2.40;;;;;;;-128.00;-1.00;-1.00;100766;317;1003360;-31
2023/09/11 11:24:09;;;;;;;4.70;2.70;;;;;;;-128.00;-1.00;-1.00;100848;317;1003741;-35
2023/09/11 11:26:40;;;;;;;7.60;2.50;;;;;;;-128.00;-1.00;-1.00;100733;317;1003578;-31
2023/09/11 11:29:05;;;;;;;2.60;2.40;;;;;;;-128.00;-1.00;-1.00;100828;317;1004145;-31
2023/09/11 11:31:31;;;;;;;2.40;2.30;;;;;;;-128.00;-1.00;-1.00;100548;317;1003386;-37
2023/09/11 11:33:57;;;;;;;3.20;3.00;;;;;;;-128.00;-1.00;-1.00;100779;317;1003314;-40
2023/09/11 11:36:23;;;;;;;7.40;2.80;;;;;;;-128.00;-1.00;-1.00;100878;317;1002840;-35
2023/09/11 11:38:48;;;;;;;2.60;2.10;;;;;;;-128.00;-1.00;-1.00;100773;317;1004498;-35
2023/09/11 11:41:14;;;;;;;8.70;3.80;;;;;;;-128.00;-1.00;-1.00;100761;317;1003741;-31
2023/09/11 11:43:40;;;;;;;4.20;1.90;;;;;;;-128.00;-1.00;-1.00;100889;317;1003047;-32
2023/09/11 11:46:06;;;;;;;9.30;2.90;;;;;;;-128.00;-1.00;-1.00;100758;317;1003216;-35
2023/09/11 11:48:32;;;;;;;3.60;3.30;;;;;;;-128.00;-1.00;-1.00;100755;317;1004654;-32
2023/09/11 11:50:59;;;;;;;2.90;2.60;;;;;;;-128.00;-1.00;-1.00;100691;319;1003993;-35
2023/09/11 11:53:24;;;;;;;3.20;2.50;;;;;;;-128.00;-1.00;-1.00;100785;317;1003823;-31
2023/09/11 11:55:51;;;;;;;3.80;3.40;;;;;;;-128.00;-1.00;-1.00;100929;317;1003516;-31
2023/09/11 11:58:16;;;;;;;3.30;3.00;;;;;;;-128.00;-1.00;-1.00;100771;317;1003308;-33
2023/09/11 12:00:56;;;;;;;2.70;2.50;;;;;;;-128.00;-1.00;-1.00;100736;317;1003896;-31
2023/09/11 12:03:22;;;;;;;2.70;2.30;;;;;;;-128.00;-1.00;-1.00;100836;317;1004012;-31
2023/09/11 12:05:47;;;;;;;2.90;2.70;;;;;;;-128.00;-1.00;-1.00;100868;317;1003473;-30